Time;durP1;ratioP1;P1;durP2;ratioP2;P2;SDS_P1;SDS_P2;PMS_P1;PMS_P2;Temp;Humidity;BMP_temperature;BMP_pressure;BME280_temperature;BME280_humidity;BME280_pressure;Samples;Min_cycle;Max_cycle;Signal;HPM_P1;HPM_P2
2022/07/19 00:00:09;;;;;;;6.18;3.13;;;20.40;95.60;;;;;;5074615;28;20048;-78
2022/07/19 00:02:36;;;;;;;7.47;3.03;;;20.30;95.60;;;;;;5075393;28;20512;-77
2022/07/19 00:05:02;;;;;;;6.63;3.40;;;20.30;95.70;;;;;;5075003;28;20135;-77
2022/07/19 00:07:27;;;;;;;5.82;3.50;;;20.20;96.00;;;;;;5093426;28;20048;-77
2022/07/19 00:09:53;;;;;;;6.85;3.13;;;20.20;96.50;;;;;;5075384;28;20052;-76
2022/07/19 00:12:19;;;;;;;6.32;3.30;;;20.10;96.60;;;;;;5092690;28;20567;-77
2022/07/19 00:14:44;;;;;;;7.05;3.47;;;20.10;96.90;;;;;;5074680;28;20040;-78
2022/07/19 00:17:10;;;;;;;7.18;3.85;;;20.00;97.00;;;;;;5055548;28;20036;-78
2022/07/19 00:19:36;;;;;;;6.32;3.22;;;20.00;97.50;;;;;;5082537;28;20501;-78
2022/07/19 00:22:02;;;;;;;6.88;3.72;;;19.90;97.50;;;;;;5060770;28;20049;-77
2022/07/19 00:24:27;;;;;;;9.05;4.38;;;19.80;98.10;;;;;;5092977;28;20513;-77
2022/07/19 00:26:53;;;;;;;7.95;3.88;;;19.70;99.00;;;;;;5071999;28;20075;-78
2022/07/19 00:29:18;;;;;;;6.68;3.30;;;19.40;99.90;;;;;;5059266;28;20048;-77
2022/07/19 00:31:44;;;;;;;6.28;3.13;;;19.30;99.60;;;;;;5093199;28;20056;-77
2022/07/19 00:34:10;;;;;;;7.22;3.22;;;19.30;99.60;;;;;;5046051;28;20391;-76
2022/07/19 00:36:35;;;;;;;8.27;3.33;;;19.30;99.10;;;;;;5089093;28;20040;-77
2022/07/19 00:39:01;;;;;;;8.23;3.92;;;19.30;98.90;;;;;;5064844;28;20459;-76
2022/07/19 00:41:27;;;;;;;6.45;3.60;;;19.40;99.20;;;;;;5099982;28;20048;-76
2022/07/19 00:43:53;;;;;;;6.85;3.53;;;19.40;98.90;;;;;;5080790;28;20058;-77
2022/07/19 00:46:21;;;;;;;7.10;4.22;;;19.50;98.90;;;;;;5081309;28;20051;-77
2022/07/19 00:48:49;;;;;;;6.50;3.47;;;19.50;98.80;;;;;;5080411;28;20404;-76
2022/07/19 00:51:16;;;;;;;8.82;5.10;;;19.50;98.90;;;;;;5081809;28;20052;-76
2022/07/19 00:53:43;;;;;;;5.93;3.38;;;19.50;99.00;;;;;;5081445;28;20079;-77
2022/07/19 00:56:10;;;;;;;7.45;3.80;;;19.50;98.90;;;;;;5081404;28;20101;-77
2022/07/19 00:58:38;;;;;;;5.93;3.25;;;19.50;98.50;;;;;;5080834;28;20372;-78
2022/07/19 01:01:05;;;;;;;7.32;3.83;;;19.60;98.50;;;;;;5081780;28;20055;-77
2022/07/19 01:03:35;;;;;;;7.35;3.50;;;19.50;98.40;;;;;;5081738;28;20056;-80
2022/07/19 01:06:01;;;;;;;7.15;3.60;;;19.60;98.20;;;;;;5064856;28;20501;-77
2022/07/19 01:08:27;;;;;;;7.32;3.75;;;19.50;98.00;;;;;;5099215;28;20047;-78
2022/07/19 01:10:53;;;;;;;7.10;3.78;;;19.60;97.90;;;;;;5081269;28;20121;-77
2022/07/19 01:13:19;;;;;;;9.50;4.43;;;19.60;98.00;;;;;;5081223;28;20055;-79
2022/07/19 01:15:44;;;;;;;7.35;3.90;;;19.50;98.20;;;;;;5077311;28;20040;-78
2022/07/19 01:18:10;;;;;;;8.15;3.80;;;19.50;98.30;;;;;;5061152;28;20080;-78
2022/07/19 01:20:37;;;;;;;9.40;3.83;;;19.40;98.60;;;;;;5061532;28;20040;-77
2022/07/19 01:23:02;;;;;;;6.78;3.40;;;19.40;98.30;;;;;;5071326;28;20127;-79
2022/07/19 01:25:34;;;;;;;7.78;3.85;;;19.30;98.20;;;;;;5067164;28;20460;-79
2022/07/19 01:28:02;;;;;;;8.63;4.45;;;19.30;98.20;;;;;;5099245;28;20127;-77
2022/07/19 01:30:28;;;;;;;7.45;4.10;;;19.30;98.20;;;;;;5049713;28;20091;-78
2022/07/19 01:32:55;;;;;;;6.85;4.22;;;19.30;98.50;;;;;;5080976;28;20090;-77
2022/07/19 01:35:21;;;;;;;10.35;6.43;;;19.30;98.70;;;;;;5081477;28;20086;-77
2022/07/19 01:37:48;;;;;;;8.65;4.00;;;19.20;99.20;;;;;;5064360;28;20048;-77
2022/07/19 01:40:15;;;;;;;7.70;4.20;;;19.10;99.50;;;;;;5080811;28;20064;-77
2022/07/19 01:42:41;;;;;;;7.93;4.20;;;19.10;99.20;;;;;;5099347;28;20075;-76
2022/07/19 01:45:09;;;;;;;11.93;7.97;;;19.10;99.40;;;;;;5060700;28;20047;-76
2022/07/19 01:47:35;;;;;;;7.47;3.97;;;19.00;99.90;;;;;;5074820;28;20079;-78
2022/07/19 01:50:02;;;;;;;10.50;6.57;;;18.90;99.90;;;;;;5070677;28;20048;-77
2022/07/19 01:52:27;;;;;;;9.75;5.70;;;18.90;99.90;;;;;;5077760;28;20062;-78
2022/07/19 01:54:53;;;;;;;7.07;4.18;;;18.80;99.90;;;;;;5077442;28;20051;-77
2022/07/19 01:57:19;;;;;;;8.07;4.30;;;18.80;99.90;;;;;;5076132;28;20391;-76
2022/07/19 01:59:44;;;;;;;7.25;3.97;;;18.80;99.90;;;;;;5091350;28;20123;-76
2022/07/19 02:02:10;;;;;;;7.57;4.18;;;18.90;99.90;;;;;;5094736;28;20048;-77
2022/07/19 02:04:36;;;;;;;6.95;4.00;;;18.80;99.70;;;;;;5095531;28;20036;-76
2022/07/19 02:07:02;;;;;;;9.18;5.00;;;18.90;99.50;;;;;;5074699;28;20049;-76
2022/07/19 02:09:27;;;;;;;12.27;8.05;;;18.90;99.40;;;;;;5057621;28;20044;-75
2022/07/19 02:11:53;;;;;;;8.23;4.40;;;18.80;99.90;;;;;;5070075;28;20368;-76
2022/07/19 02:14:19;;;;;;;7.07;4.10;;;18.70;99.90;;;;;;5072702;28;20047;-76
2022/07/19 02:16:45;;;;;;;7.88;4.10;;;18.60;99.90;;;;;;5067414;28;20126;-76
2022/07/19 02:19:11;;;;;;;8.45;4.53;;;18.70;99.90;;;;;;5077108;28;20086;-77
2022/07/19 02:21:37;;;;;;;8.02;4.30;;;18.70;99.90;;;;;;5094283;28;20048;-75
2022/07/19 02:24:05;;;;;;;7.60;4.07;;;18.70;99.90;;;;;;5094649;28;20056;-75
2022/07/19 02:26:31;;;;;;;7.53;4.28;;;18.70;99.80;;;;;;5077552;28;20119;-76
2022/07/19 02:28:57;;;;;;;7.80;4.45;;;18.70;99.60;;;;;;5075918;28;20062;-75
2022/07/19 02:31:23;;;;;;;7.80;4.60;;;18.70;99.70;;;;;;5073696;28;20045;-76
2022/07/19 02:33:49;;;;;;;7.45;4.53;;;18.70;99.50;;;;;;5067435;28;20048;-76
2022/07/19 02:36:15;;;;;;;7.57;4.55;;;18.70;99.50;;;;;;5077033;28;20044;-75
2022/07/19 02:38:41;;;;;;;8.65;5.00;;;18.70;99.40;;;;;;5091823;28;20067;-75
2022/07/19 02:41:06;;;;;;;7.40;4.50;;;18.70;99.70;;;;;;5095121;28;20115;-75
2022/07/19 02:43:32;;;;;;;12.30;8.35;;;18.60;99.90;;;;;;5094281;28;20047;-79
2022/07/19 02:45:58;;;;;;;8.00;5.03;;;18.60;99.90;;;;;;5059923;28;20126;-76
2022/07/19 02:48:24;;;;;;;8.45;4.72;;;18.60;99.90;;;;;;5076864;28;20056;-75
2022/07/19 02:50:49;;;;;;;7.55;4.60;;;18.50;99.90;;;;;;5076161;28;20465;-75
2022/07/19 02:53:15;;;;;;;8.57;4.95;;;18.50;99.90;;;;;;5077038;28;20131;-76
2022/07/19 02:55:41;;;;;;;7.68;4.85;;;18.50;99.90;;;;;;5075786;28;20040;-76
2022/07/19 02:58:06;;;;;;;8.70;5.20;;;18.50;99.80;;;;;;5075563;28;20048;-76
2022/07/19 03:00:33;;;;;;;6.93;4.72;;;18.50;99.80;;;;;;5093537;28;20523;-76
2022/07/19 03:05:44;;;;;;;8.13;4.93;;;18.50;99.70;;;;;;5094660;28;20058;-76
2022/07/19 03:08:10;;;;;;;8.45;5.32;;;18.40;99.80;;;;;;5094263;28;20051;-76
2022/07/19 03:10:37;;;;;;;7.55;4.93;;;18.40;99.70;;;;;;5094047;28;20115;-76
2022/07/19 03:13:03;;;;;;;8.32;5.55;;;18.40;99.80;;;;;;5059908;28;20135;-75
2022/07/19 03:15:28;;;;;;;8.60;5.40;;;18.40;99.90;;;;;;5091809;28;20535;-75
2022/07/19 03:17:54;;;;;;;9.77;5.40;;;18.40;99.90;;;;;;5081222;28;20051;-76
2022/07/19 03:20:20;;;;;;;8.18;5.30;;;18.40;99.90;;;;;;5055539;28;20132;-75
2022/07/19 03:22:45;;;;;;;8.55;5.85;;;18.40;99.90;;;;;;5059439;28;20048;-76
2022/07/19 03:25:11;;;;;;;10.00;5.50;;;18.40;99.90;;;;;;5067530;28;20048;-76
2022/07/19 03:27:37;;;;;;;9.43;5.88;;;18.40;99.90;;;;;;5059435;28;20059;-76
2022/07/19 03:30:04;;;;;;;8.63;6.10;;;18.50;99.90;;;;;;5057501;28;20055;-76
2022/07/19 03:32:29;;;;;;;9.07;5.47;;;18.40;99.90;;;;;;5055945;28;20044;-76
2022/07/19 03:34:55;;;;;;;8.32;5.20;;;18.30;99.90;;;;;;5088125;28;20048;-76
2022/07/19 03:37:21;;;;;;;8.23;5.50;;;18.30;99.90;;;;;;5093927;28;20043;-75
2022/07/19 03:39:47;;;;;;;8.43;5.30;;;18.30;99.90;;;;;;5075675;28;20051;-76
2022/07/19 03:42:12;;;;;;;9.43;5.38;;;18.30;99.90;;;;;;5038841;28;20036;-75
2022/07/19 03:44:38;;;;;;;9.95;5.32;;;18.30;99.90;;;;;;5083079;28;20049;-76
2022/07/19 03:47:04;;;;;;;8.13;5.30;;;18.30;99.90;;;;;;5093549;28;20088;-76
2022/07/19 03:49:29;;;;;;;9.63;5.20;;;18.40;99.90;;;;;;5064824;28;20043;-76
2022/07/19 03:51:55;;;;;;;8.98;5.20;;;18.20;99.90;;;;;;5075122;28;20447;-75
2022/07/19 03:54:21;;;;;;;9.50;4.80;;;18.10;99.90;;;;;;5074922;28;20048;-76
2022/07/19 03:56:46;;;;;;;9.13;5.05;;;18.10;99.90;;;;;;5063598;28;20054;-76
2022/07/19 03:59:12;;;;;;;7.70;4.90;;;18.00;99.90;;;;;;5086418;28;20044;-75
2022/07/19 04:01:38;;;;;;;7.65;4.82;;;18.10;99.90;;;;;;5083592;28;20143;-75
2022/07/19 04:04:04;;;;;;;9.73;5.03;;;18.00;99.90;;;;;;5058484;28;20048;-75
2022/07/19 04:06:30;;;;;;;11.77;7.43;;;18.00;99.90;;;;;;5093619;28;20108;-75
2022/07/19 04:08:56;;;;;;;8.93;5.18;;;18.00;99.90;;;;;;5057788;28;20463;-76
2022/07/19 04:11:22;;;;;;;8.18;5.30;;;18.00;99.90;;;;;;5093134;28;20051;-75
2022/07/19 04:13:48;;;;;;;9.13;5.20;;;18.00;99.90;;;;;;5073267;28;20044;-76
2022/07/19 04:16:13;;;;;;;7.63;4.80;;;18.00;99.90;;;;;;5034026;28;20190;-76
2022/07/19 04:18:39;;;;;;;7.80;5.10;;;18.00;99.90;;;;;;5086837;28;20055;-76
2022/07/19 04:21:06;;;;;;;9.45;5.90;;;18.00;99.90;;;;;;5093486;28;20083;-76
2022/07/19 04:23:31;;;;;;;7.65;5.13;;;17.90;99.90;;;;;;5072046;28;20506;-78
2022/07/19 04:25:57;;;;;;;9.38;5.50;;;18.00;99.90;;;;;;5091609;28;20048;-76
2022/07/19 04:28:23;;;;;;;12.75;7.78;;;18.00;99.90;;;;;;5051302;28;20096;-76
2022/07/19 04:30:49;;;;;;;8.93;5.47;;;18.00;99.90;;;;;;5051523;28;20145;-75
2022/07/19 04:33:16;;;;;;;12.85;7.88;;;17.90;99.90;;;;;;5051359;28;20060;-76
2022/07/19 04:35:42;;;;;;;8.80;5.60;;;17.90;99.90;;;;;;5051714;28;20049;-75
2022/07/19 04:38:08;;;;;;;9.48;5.45;;;17.90;99.90;;;;;;5049181;28;20159;-75
2022/07/19 04:40:34;;;;;;;10.90;7.13;;;17.90;99.90;;;;;;5052826;28;20507;-75
2022/07/19 04:43:00;;;;;;;10.95;7.60;;;18.00;99.90;;;;;;5052417;28;20103;-74
2022/07/19 04:45:26;;;;;;;11.00;6.20;;;18.10;99.90;;;;;;5050785;28;20041;-75
2022/07/19 04:47:52;;;;;;;9.40;6.05;;;18.10;99.90;;;;;;5052623;28;20044;-75
2022/07/19 04:50:17;;;;;;;10.13;6.65;;;18.20;99.90;;;;;;5052393;28;20048;-75
2022/07/19 04:52:43;;;;;;;12.38;8.20;;;18.10;99.90;;;;;;5047986;28;20045;-76
2022/07/19 04:55:09;;;;;;;10.82;7.90;;;18.20;99.90;;;;;;5046905;28;20080;-76
2022/07/19 04:57:35;;;;;;;11.38;7.80;;;18.20;99.90;;;;;;5051194;28;20452;-74
2022/07/19 05:00:03;;;;;;;12.13;8.00;;;18.20;99.90;;;;;;5050831;28;20127;-72
2022/07/19 05:02:29;;;;;;;11.25;7.72;;;18.20;99.90;;;;;;5048142;28;20062;-73
2022/07/19 05:04:55;;;;;;;11.85;8.07;;;18.30;99.90;;;;;;5043672;28;20060;-73
2022/07/19 05:07:21;;;;;;;13.63;7.80;;;18.50;99.90;;;;;;5051158;28;20480;-76
2022/07/19 05:09:46;;;;;;;11.85;8.48;;;18.80;99.90;;;;;;5051376;28;20056;-76
2022/07/19 05:12:12;;;;;;;11.32;7.82;;;19.00;99.90;;;;;;5051166;28;20045;-75
2022/07/19 05:14:38;;;;;;;12.95;8.13;;;19.10;99.90;;;;;;5051385;28;20056;-74
2022/07/19 05:17:03;;;;;;;13.13;8.10;;;19.40;99.90;;;;;;5051576;28;20129;-75
2022/07/19 05:19:29;;;;;;;13.85;7.75;;;19.60;99.90;;;;;;5051828;28;20400;-74
2022/07/19 05:21:55;;;;;;;10.43;7.50;;;19.80;99.90;;;;;;5046606;28;20439;-74
2022/07/19 05:24:20;;;;;;;13.68;8.02;;;20.40;99.90;;;;;;5052919;28;20073;-74
2022/07/19 05:26:46;;;;;;;12.13;7.75;;;21.00;99.90;;;;;;5050475;28;20102;-75
2022/07/19 05:29:15;;;;;;;11.75;7.30;;;21.30;99.90;;;;;;5069656;28;20070;-75
2022/07/19 05:31:40;;;;;;;10.30;7.00;;;21.40;99.90;;;;;;5068096;28;20044;-74
2022/07/19 05:34:06;;;;;;;10.68;7.50;;;21.80;99.90;;;;;;5093177;28;20044;-74
2022/07/19 05:36:32;;;;;;;11.40;7.30;;;22.10;98.70;;;;;;5073903;28;20079;-75
2022/07/19 05:38:57;;;;;;;11.70;7.93;;;22.20;97.00;;;;;;5078076;28;20040;-74
2022/07/19 05:41:24;;;;;;;12.38;7.72;;;22.70;96.90;;;;;;5058296;28;20040;-74
2022/07/19 05:43:50;;;;;;;13.93;8.00;;;23.10;96.30;;;;;;5069986;28;20056;-73
2022/07/19 05:46:16;;;;;;;12.32;8.30;;;23.40;93.60;;;;;;5085893;28;20384;-74
2022/07/19 05:48:43;;;;;;;12.48;7.70;;;23.60;92.20;;;;;;5080705;28;20052;-74
2022/07/19 05:51:08;;;;;;;13.85;7.78;;;24.00;92.00;;;;;;5077932;28;20085;-74
2022/07/19 05:53:35;;;;;;;15.18;7.82;;;24.70;90.10;;;;;;5089274;28;20608;-74
2022/07/19 05:56:01;;;;;;;13.57;7.60;;;25.00;87.70;;;;;;5077441;28;20048;-75
2022/07/19 05:58:27;;;;;;;11.80;7.75;;;25.20;87.20;;;;;;5061074;28;20442;-74
2022/07/19 06:03:37;;;;;;;12.23;7.72;;;25.60;85.90;;;;;;5072439;28;20445;-74
2022/07/19 06:06:03;;;;;;;10.43;7.13;;;25.70;80.40;;;;;;5094825;28;20537;-74
2022/07/19 06:08:29;;;;;;;12.38;7.32;;;25.80;78.90;;;;;;5076318;28;20087;-75
2022/07/19 06:10:54;;;;;;;10.40;7.20;;;26.30;81.50;;;;;;5095416;28;20105;-75
2022/07/19 06:13:20;;;;;;;9.98;7.00;;;26.30;79.80;;;;;;5095157;28;20072;-74
2022/07/19 06:15:46;;;;;;;10.88;7.47;;;26.40;77.30;;;;;;5055204;28;20048;-75
2022/07/19 06:18:12;;;;;;;12.73;7.38;;;26.40;73.00;;;;;;5091804;28;20044;-74
2022/07/19 06:20:37;;;;;;;10.80;7.07;;;26.30;74.70;;;;;;5092818;28;20049;-74
2022/07/19 06:23:03;;;;;;;13.20;7.68;;;26.30;74.00;;;;;;5093348;28;20469;-74
2022/07/19 06:25:29;;;;;;;9.85;7.47;;;26.60;75.30;;;;;;5074849;28;20109;-73
2022/07/19 06:27:54;;;;;;;10.77;7.38;;;26.70;72.50;;;;;;5091099;28;20048;-74
2022/07/19 06:30:20;;;;;;;10.85;6.80;;;27.00;76.10;;;;;;5074837;28;20459;-75
2022/07/19 06:32:46;;;;;;;10.57;6.50;;;26.60;76.10;;;;;;5085591;28;20467;-72
2022/07/19 06:35:11;;;;;;;9.52;6.65;;;27.50;72.90;;;;;;5092214;28;20047;-75
2022/07/19 06:37:37;;;;;;;12.20;6.88;;;27.50;69.80;;;;;;5073424;28;20036;-75
2022/07/19 06:40:03;;;;;;;10.60;7.03;;;28.00;68.80;;;;;;5074886;28;20044;-76
2022/07/19 06:42:29;;;;;;;9.73;6.65;;;28.40;66.90;;;;;;5091416;28;20043;-74
2022/07/19 06:44:56;;;;;;;10.52;6.97;;;28.40;66.10;;;;;;5092079;28;20044;-72
2022/07/19 06:47:21;;;;;;;11.32;7.00;;;28.60;65.20;;;;;;5072865;28;20093;-74
2022/07/19 06:49:47;;;;;;;10.13;6.70;;;29.10;64.80;;;;;;5092999;28;20478;-74
2022/07/19 06:52:13;;;;;;;10.18;6.32;;;29.20;62.80;;;;;;5071769;28;20086;-75
2022/07/19 06:54:38;;;;;;;10.00;6.40;;;29.30;61.70;;;;;;5083757;28;20475;-74
2022/07/19 06:57:06;;;;;;;11.35;6.43;;;29.00;60.10;;;;;;5082072;28;20098;-75
2022/07/19 06:59:32;;;;;;;10.60;6.15;;;28.20;63.10;;;;;;5074032;28;20430;-74
2022/07/19 07:01:57;;;;;;;9.45;6.22;;;28.60;63.60;;;;;;5057366;28;20048;-75
2022/07/19 07:04:23;;;;;;;12.27;5.80;;;28.80;63.70;;;;;;5092384;28;20047;-75
2022/07/19 07:06:49;;;;;;;25.45;7.22;;;29.10;63.30;;;;;;5090737;28;20376;-74
2022/07/19 07:09:14;;;;;;;13.75;6.10;;;29.40;62.70;;;;;;5092468;28;20501;-77
2022/07/19 07:11:40;;;;;;;12.00;6.68;;;29.20;63.20;;;;;;5092286;28;20040;-76
2022/07/19 07:14:06;;;;;;;9.30;5.80;;;29.10;64.00;;;;;;5071437;28;20146;-76
2022/07/19 07:16:31;;;;;;;8.95;6.00;;;29.30;61.50;;;;;;5068311;28;20056;-81
2022/07/19 07:18:57;;;;;;;8.85;5.72;;;29.80;62.30;;;;;;5059539;28;20056;-75
2022/07/19 07:21:23;;;;;;;8.88;5.50;;;29.50;61.30;;;;;;5051031;28;20045;-73
2022/07/19 07:23:49;;;;;;;9.32;5.40;;;30.00;59.40;;;;;;5082718;28;20051;-75
2022/07/19 07:26:15;;;;;;;9.02;5.30;;;30.40;58.80;;;;;;5081418;28;20052;-73
2022/07/19 07:28:41;;;;;;;9.88;5.18;;;30.00;58.20;;;;;;5084029;28;20061;-74
2022/07/19 07:31:07;;;;;;;9.10;5.82;;;30.50;57.50;;;;;;5068883;28;20502;-74
2022/07/19 07:33:32;;;;;;;9.43;5.50;;;30.40;56.80;;;;;;5083596;28;20126;-74
2022/07/19 07:35:58;;;;;;;9.48;5.03;;;30.60;57.30;;;;;;5083877;28;20557;-74
2022/07/19 07:38:23;;;;;;;9.10;5.45;;;30.80;56.90;;;;;;5081187;28;20051;-73
2022/07/19 07:40:49;;;;;;;10.32;5.75;;;30.80;56.80;;;;;;5085156;28;20040;-76
2022/07/19 07:43:15;;;;;;;10.00;4.72;;;30.90;57.20;;;;;;5027842;28;20530;-73
2022/07/19 07:45:42;;;;;;;9.88;5.55;;;30.70;58.10;;;;;;5064208;28;20058;-77
2022/07/19 07:48:07;;;;;;;9.15;5.15;;;30.40;56.60;;;;;;5069061;28;20044;-74
2022/07/19 07:50:33;;;;;;;10.27;5.15;;;30.60;57.40;;;;;;5083618;28;20468;-75
2022/07/19 07:52:59;;;;;;;9.27;5.25;;;30.60;58.50;;;;;;5080220;28;20521;-77
2022/07/19 07:55:25;;;;;;;7.80;5.03;;;30.40;58.50;;;;;;5081141;28;20052;-75
2022/07/19 07:57:51;;;;;;;9.07;4.75;;;31.00;57.90;;;;;;5082493;28;20108;-78
2022/07/19 08:00:18;;;;;;;7.75;4.78;;;31.20;55.20;;;;;;5076725;28;20040;-77
2022/07/19 08:02:46;;;;;;;10.40;4.90;;;31.50;56.60;;;;;;5058683;28;20167;-74
2022/07/19 08:05:12;;;;;;;10.07;5.20;;;31.60;55.90;;;;;;5075479;28;20086;-74
2022/07/19 08:07:38;;;;;;;8.00;4.60;;;31.70;54.80;;;;;;5057056;28;20071;-76
2022/07/19 08:10:06;;;;;;;9.55;4.72;;;31.50;54.10;;;;;;5057650;28;20056;-77
2022/07/19 08:12:33;;;;;;;8.93;4.45;;;31.30;54.10;;;;;;5057287;28;20044;-77
2022/07/19 08:14:58;;;;;;;8.13;4.45;;;31.30;55.20;;;;;;5073708;28;20045;-74
2022/07/19 08:17:24;;;;;;;10.05;4.55;;;31.40;56.70;;;;;;5057522;28;20052;-77
2022/07/19 08:19:50;;;;;;;10.07;4.93;;;31.60;55.10;;;;;;5056314;28;20472;-74
2022/07/19 08:22:16;;;;;;;8.45;4.50;;;31.10;54.50;;;;;;5075593;28;20479;-75
2022/07/19 08:24:43;;;;;;;7.72;4.13;;;31.00;55.30;;;;;;5066232;28;20514;-74
2022/07/19 08:27:08;;;;;;;9.30;4.35;;;30.90;56.30;;;;;;5045583;28;20044;-79
2022/07/19 08:29:34;;;;;;;7.00;3.85;;;31.30;55.50;;;;;;5061429;28;20057;-74
2022/07/19 08:32:00;;;;;;;7.50;3.65;;;31.60;54.30;;;;;;5067205;28;20052;-76
2022/07/19 08:34:25;;;;;;;8.20;4.00;;;31.90;54.50;;;;;;5080539;28;20048;-75
2022/07/19 08:36:51;;;;;;;8.45;3.72;;;32.00;54.00;;;;;;5060714;28;20072;-74
2022/07/19 08:39:17;;;;;;;9.48;4.00;;;32.20;52.80;;;;;;5061503;28;20153;-75
2022/07/19 08:41:47;;;;;;;8.05;3.80;;;32.40;54.00;;;;;;5079815;28;20036;-77
2022/07/19 08:44:13;;;;;;;8.57;3.70;;;32.50;50.90;;;;;;5061224;28;20049;-73
2022/07/19 08:46:43;;;;;;;7.47;3.30;;;32.60;49.00;;;;;;5082011;28;20054;-74
2022/07/19 08:49:10;;;;;;;7.40;3.30;;;32.70;49.40;;;;;;5079612;28;20052;-75
2022/07/19 08:51:36;;;;;;;8.35;2.90;;;32.40;50.30;;;;;;5079912;28;20514;-74
2022/07/19 08:54:02;;;;;;;7.97;3.25;;;32.80;46.30;;;;;;5059325;28;20151;-75
2022/07/19 08:59:13;;;;;;;7.90;3.28;;;33.10;48.00;;;;;;5085637;28;20493;-74
2022/07/19 09:01:39;;;;;;;9.10;3.20;;;33.30;47.30;;;;;;5085520;28;20044;-75
2022/07/19 09:04:15;;;;;;;6.45;3.15;;;33.50;47.80;;;;;;5079627;28;20048;-78
2022/07/19 09:06:46;;;;;;;10.63;3.30;;;33.60;48.20;;;;;;5082571;28;20040;-76
2022/07/19 09:09:14;;;;;;;6.85;3.10;;;33.80;48.00;;;;;;5084211;28;20193;-80
2022/07/19 09:11:48;;;;;;;7.40;3.00;;;33.90;47.30;;;;;;5066418;28;20051;-77
2022/07/19 09:14:22;;;;;;;7.38;3.00;;;33.90;46.20;;;;;;5073360;28;20055;-77
2022/07/19 09:17:03;;;;;;;6.88;2.80;;;33.90;47.00;;;;;;5064988;28;20056;-78
2022/07/19 09:19:32;;;;;;;7.53;3.00;;;33.90;47.40;;;;;;5076943;28;20045;-77
2022/07/19 09:22:04;;;;;;;7.03;3.20;;;34.10;47.90;;;;;;5068530;28;20052;-73
2022/07/19 09:24:36;;;;;;;7.70;2.90;;;34.10;45.80;;;;;;5056494;28;20074;-75
2022/07/19 09:27:01;;;;;;;8.07;3.30;;;34.20;45.20;;;;;;5048403;28;20051;-78
2022/07/19 09:29:28;;;;;;;8.93;2.97;;;34.20;45.00;;;;;;5063896;28;20049;-78
2022/07/19 09:32:18;;;;;;;7.10;2.95;;;34.40;46.40;;;;;;5066584;28;20140;-77
2022/07/19 09:34:57;;;;;;;6.55;2.85;;;34.40;45.90;;;;;;5060876;28;20056;-75
2022/07/19 09:37:28;;;;;;;7.38;2.60;;;34.30;45.80;;;;;;5086877;28;20494;-77
2022/07/19 09:40:00;;;;;;;8.48;3.10;;;34.50;41.50;;;;;;5051841;28;20048;-75
2022/07/19 09:42:36;;;;;;;6.30;2.97;;;34.60;44.00;;;;;;5066870;28;20429;-74
2022/07/19 09:45:17;;;;;;;6.82;2.70;;;34.70;44.50;;;;;;5064407;28;20542;-74
2022/07/19 09:47:46;;;;;;;7.25;2.80;;;34.80;40.80;;;;;;5066103;28;20557;-74
2022/07/19 09:50:17;;;;;;;5.55;2.60;;;34.90;40.90;;;;;;5085204;28;20079;-76
2022/07/19 09:52:44;;;;;;;7.47;2.50;;;34.90;39.30;;;;;;5064003;28;20045;-74
2022/07/19 09:55:10;;;;;;;6.15;2.80;;;35.00;39.90;;;;;;5081977;28;20484;-74
2022/07/19 09:57:45;;;;;;;6.10;2.55;;;35.20;39.10;;;;;;5066231;28;20447;-77
2022/07/19 10:00:13;;;;;;;7.90;2.70;;;35.10;39.20;;;;;;5067016;28;20131;-77
2022/07/19 10:02:42;;;;;;;5.80;2.65;;;35.10;39.30;;;;;;5067239;28;20044;-76
2022/07/19 10:05:10;;;;;;;8.02;2.90;;;35.20;38.80;;;;;;5083798;28;20119;-74
2022/07/19 10:07:36;;;;;;;6.68;2.38;;;35.00;40.00;;;;;;5044289;28;20071;-75
2022/07/19 10:10:10;;;;;;;6.55;2.50;;;35.30;39.50;;;;;;5085072;28;20390;-75
2022/07/19 10:12:38;;;;;;;6.72;2.38;;;35.50;37.80;;;;;;5084521;28;20054;-75
2022/07/19 10:15:05;;;;;;;8.18;2.42;;;35.60;38.00;;;;;;5048093;28;20047;-76
2022/07/19 10:17:34;;;;;;;6.55;2.50;;;35.70;38.30;;;;;;5067525;28;20399;-73
2022/07/19 10:20:01;;;;;;;6.18;2.30;;;35.70;36.60;;;;;;5084011;28;20107;-75
2022/07/19 10:22:27;;;;;;;6.75;2.70;;;35.70;36.60;;;;;;5081706;28;20059;-75
2022/07/19 10:24:58;;;;;;;5.63;2.60;;;35.80;37.50;;;;;;5051027;28;20387;-77
2022/07/19 10:27:24;;;;;;;5.97;2.50;;;36.00;36.60;;;;;;5066839;28;20048;-74
2022/07/19 10:29:51;;;;;;;7.03;2.60;;;36.00;36.70;;;;;;5080277;28;20551;-73
2022/07/19 10:32:16;;;;;;;8.10;2.60;;;35.90;35.10;;;;;;5049676;28;20055;-74
2022/07/19 10:34:46;;;;;;;9.30;2.42;;;35.90;35.80;;;;;;5066668;28;20052;-73
2022/07/19 10:37:12;;;;;;;9.27;2.50;;;35.90;34.80;;;;;;5064153;28;20040;-76
2022/07/19 10:39:39;;;;;;;5.57;2.38;;;35.90;34.60;;;;;;5050354;28;20075;-78
2022/07/19 10:42:06;;;;;;;6.97;2.47;;;36.00;35.50;;;;;;5066905;28;20051;-75
2022/07/19 10:44:32;;;;;;;6.00;2.30;;;36.10;33.80;;;;;;5064032;28;20044;-75
2022/07/19 10:46:58;;;;;;;8.25;2.50;;;36.00;34.40;;;;;;5082379;28;20055;-74
2022/07/19 10:49:44;;;;;;;8.25;2.65;;;36.00;34.70;;;;;;5082746;28;20048;-75
2022/07/19 10:52:28;;;;;;;8.10;2.58;;;36.10;33.50;;;;;;5082904;28;20040;-75
2022/07/19 10:55:25;;;;;;;7.53;2.38;;;36.10;33.30;;;;;;5064467;28;20048;-78
2022/07/19 10:58:10;;;;;;;6.32;2.42;;;36.10;33.40;;;;;;5081274;28;20134;-75
2022/07/19 11:00:44;;;;;;;5.72;2.30;;;36.10;33.50;;;;;;5063531;28;20072;-77
2022/07/19 11:03:30;;;;;;;6.38;2.30;;;36.20;34.70;;;;;;5065773;28;20055;-76
2022/07/19 11:05:59;;;;;;;10.30;2.60;;;36.40;35.60;;;;;;5064868;28;20056;-73
2022/07/19 11:08:37;;;;;;;6.22;2.35;;;36.50;32.60;;;;;;5064560;28;20040;-74
2022/07/19 11:11:14;;;;;;;7.22;2.22;;;36.60;31.80;;;;;;5065243;28;20127;-74
2022/07/19 11:13:44;;;;;;;8.13;2.30;;;36.60;32.40;;;;;;5078729;28;20132;-75
2022/07/19 11:16:09;;;;;;;7.57;2.38;;;36.70;32.70;;;;;;5063582;28;20047;-74
2022/07/19 11:18:35;;;;;;;6.85;2.15;;;36.60;33.60;;;;;;5078221;28;20044;-75
2022/07/19 11:21:04;;;;;;;7.50;2.20;;;36.80;30.30;;;;;;5065882;28;20122;-76
2022/07/19 11:23:32;;;;;;;6.15;2.30;;;36.70;31.60;;;;;;5062214;28;20105;-85
2022/07/19 11:26:23;;;;;;;6.78;2.33;;;36.80;32.20;;;;;;5064740;28;20056;-74
2022/07/19 11:28:49;;;;;;;;;;;36.90;29.00;;;;;;5046719;28;20048;-72
2022/07/19 11:31:23;;;;;;;5.63;2.10;;;36.90;29.80;;;;;;5080230;28;19935;-75
2022/07/19 11:33:52;;;;;;;6.22;1.90;;;36.90;29.70;;;;;;5061522;28;20074;-74
2022/07/19 11:36:19;;;;;;;7.07;2.03;;;37.00;29.40;;;;;;5066073;28;20047;-76
2022/07/19 11:38:50;;;;;;;7.18;2.20;;;37.00;31.40;;;;;;5084101;28;20060;-75
2022/07/19 11:41:22;;;;;;;5.38;2.00;;;37.10;30.60;;;;;;5081965;28;20048;-77
2022/07/19 11:44:07;;;;;;;9.90;2.30;;;37.20;29.70;;;;;;5063360;28;20079;-74
2022/07/19 11:46:37;;;;;;;5.85;2.00;;;37.10;29.00;;;;;;5063143;28;20075;-75
2022/07/19 11:49:05;;;;;;;6.28;1.90;;;36.90;28.80;;;;;;5084411;28;20052;-74
2022/07/19 11:51:32;;;;;;;6.82;1.90;;;36.80;29.00;;;;;;5081934;28;20051;-75
2022/07/19 11:54:00;;;;;;;5.10;1.63;;;36.80;29.10;;;;;;5045045;28;20123;-77
2022/07/19 11:56:31;;;;;;;5.63;1.70;;;36.80;28.10;;;;;;5024241;28;20084;-75
2022/07/19 11:59:01;;;;;;;6.43;2.00;;;36.90;28.90;;;;;;5080802;28;20072;-75
2022/07/19 12:01:39;;;;;;;7.13;1.67;;;37.10;29.20;;;;;;5081777;28;20040;-76
2022/07/19 12:04:10;;;;;;;8.20;1.80;;;37.10;28.30;;;;;;5078457;28;20059;-77
2022/07/19 12:06:38;;;;;;;6.15;1.88;;;37.00;28.70;;;;;;5064816;28;20040;-75
2022/07/19 12:09:18;;;;;;;6.07;1.90;;;37.10;28.90;;;;;;5062571;28;20047;-75
2022/07/19 12:11:49;;;;;;;6.80;1.80;;;37.10;29.50;;;;;;5061845;28;20097;-76
2022/07/19 12:14:20;;;;;;;7.13;2.00;;;37.10;29.10;;;;;;5079028;28;20052;-75
2022/07/19 12:16:46;;;;;;;5.10;1.70;;;37.30;28.80;;;;;;5080654;28;20056;-75
2022/07/19 12:19:14;;;;;;;6.93;1.90;;;37.40;28.30;;;;;;5062769;28;20043;-77
2022/07/19 12:21:41;;;;;;;5.15;1.77;;;37.30;28.20;;;;;;5081391;28;20442;-74
2022/07/19 12:24:13;;;;;;;3.92;1.65;;;37.20;29.20;;;;;;5079838;28;20125;-76
2022/07/19 12:26:55;;;;;;;17.27;2.70;;;37.10;28.20;;;;;;5081633;28;20048;-76
2022/07/19 12:29:23;;;;;;;5.70;1.80;;;37.20;29.30;;;;;;5060267;28;20052;-76
2022/07/19 12:31:51;;;;;;;5.10;1.77;;;37.30;27.80;;;;;;5062097;28;20056;-74
2022/07/19 12:34:17;;;;;;;5.85;1.75;;;37.40;28.20;;;;;;5064075;28;20506;-74
2022/07/19 12:36:44;;;;;;;5.82;1.75;;;37.50;27.90;;;;;;5065220;28;20196;-75
2022/07/19 12:39:23;;;;;;;6.82;1.90;;;37.50;27.20;;;;;;5067012;28;20048;-76
2022/07/19 12:42:07;;;;;;;6.07;1.77;;;37.40;27.50;;;;;;5063330;28;20123;-73
2022/07/19 12:44:34;;;;;;;5.32;1.83;;;37.40;27.40;;;;;;5064107;28;20089;-75
2022/07/19 12:47:00;;;;;;;6.85;1.67;;;37.40;28.40;;;;;;5080870;28;20108;-76
2022/07/19 12:49:41;;;;;;;6.80;2.05;;;37.50;28.80;;;;;;5062497;28;20056;-75
2022/07/19 12:52:07;;;;;;;6.88;1.90;;;37.60;29.40;;;;;;5082024;28;20514;-78
2022/07/19 12:54:32;;;;;;;5.07;1.70;;;37.80;28.70;;;;;;5060539;28;20076;-74